createdAt,value
2022-12-06T00:03:02.640Z,12.41
2022-12-06T00:08:08.492Z,12.35
2022-12-06T00:13:12.322Z,12.12
2022-12-06T00:18:16.031Z,12.10
2022-12-06T00:23:21.484Z,12.01
2022-12-06T00:28:25.231Z,12.00
2022-12-06T00:33:29.575Z,11.80
2022-12-06T00:38:35.497Z,11.78
2022-12-06T00:43:40.068Z,11.69
2022-12-06T00:48:43.912Z,11.67
2022-12-06T00:53:49.786Z,11.62
2022-12-06T00:58:53.662Z,11.52
2022-12-06T01:03:59.276Z,11.52
2022-12-06T01:09:07.480Z,11.36
2022-12-06T01:14:11.079Z,11.15
2022-12-06T01:19:14.614Z,11.13
2022-12-06T01:24:20.432Z,11.18
2022-12-06T01:29:24.016Z,10.97
2022-12-06T01:34:27.584Z,10.97
2022-12-06T01:39:32.960Z,11.06
2022-12-06T01:44:46.035Z,11.09
2022-12-06T01:49:55.010Z,11.09
2022-12-06T01:55:01.303Z,11.11
2022-12-06T02:00:06.560Z,11.21
2022-12-06T02:05:10.598Z,11.13
2022-12-06T02:10:15.836Z,10.97
2022-12-06T02:15:20.946Z,10.98
2022-12-06T02:20:33.591Z,10.92
2022-12-06T02:26:15.176Z,10.83
2022-12-06T02:31:27.866Z,10.90
2022-12-06T02:36:38.698Z,10.83
2022-12-06T02:41:46.352Z,10.78
2022-12-06T02:46:56.324Z,10.67
2022-12-06T02:52:00.103Z,10.67
2022-12-06T02:57:03.716Z,10.75
2022-12-06T03:02:12.395Z,10.79
2022-12-06T03:07:31.269Z,10.81
2022-12-06T03:12:40.598Z,10.88
2022-12-06T03:17:51.571Z,10.92
2022-12-06T03:23:00.697Z,10.94
2022-12-06T03:28:06.432Z,10.89
2022-12-06T03:33:13.548Z,10.82
2022-12-06T03:38:24.212Z,10.85
2022-12-06T03:43:27.918Z,10.75
2022-12-06T03:48:36.650Z,10.85
2022-12-06T03:53:48.971Z,10.89
2022-12-06T03:58:52.651Z,10.80
2022-12-06T04:03:57.896Z,10.79
2022-12-06T04:09:01.487Z,10.75
2022-12-06T04:14:05.057Z,10.71
2022-12-06T04:19:10.288Z,10.68
2022-12-06T04:24:13.842Z,10.72
2022-12-06T04:29:17.391Z,10.62
2022-12-06T04:34:23.595Z,10.65
2022-12-06T04:39:26.823Z,10.60
2022-12-06T04:44:30.377Z,10.67
2022-12-06T04:49:36.443Z,10.67
2022-12-06T04:54:40.240Z,10.77
2022-12-06T04:59:45.355Z,10.59
2022-12-06T05:04:50.587Z,10.57
2022-12-06T05:09:54.185Z,10.53
2022-12-06T05:14:57.724Z,10.50
2022-12-06T05:20:02.998Z,10.43
2022-12-06T05:25:06.965Z,10.47
2022-12-06T05:30:12.089Z,10.48
2022-12-06T05:35:17.443Z,10.44
2022-12-06T05:40:20.995Z,10.45
2022-12-06T05:45:24.621Z,10.43
2022-12-06T05:50:30.203Z,10.42
2022-12-06T05:55:33.861Z,10.42
2022-12-06T06:00:37.929Z,10.11
2022-12-06T06:05:48.942Z,10.11
2022-12-06T06:10:52.626Z,10.44
2022-12-06T06:15:56.220Z,10.33
2022-12-06T06:21:01.845Z,10.10
2022-12-06T06:26:08.950Z,10.07
2022-12-06T06:31:12.514Z,10.05
2022-12-06T06:36:17.790Z,9.99
2022-12-06T06:41:21.404Z,9.98
2022-12-06T06:46:25.028Z,10.06
2022-12-06T06:51:32.285Z,10.00
2022-12-06T06:56:35.942Z,10.04
2022-12-06T07:01:39.556Z,10.07
2022-12-06T07:06:45.155Z,10.16
2022-12-06T07:11:48.684Z,10.41
2022-12-06T07:16:52.297Z,10.28
2022-12-06T07:21:57.579Z,10.30
2022-12-06T07:27:01.145Z,10.36
2022-12-06T07:32:04.757Z,10.34
2022-12-06T07:37:09.945Z,10.53
2022-12-06T07:42:13.548Z,10.44
2022-12-06T07:47:17.511Z,10.49
2022-12-06T07:52:23.568Z,10.50
2022-12-06T07:57:27.177Z,10.44
2022-12-06T08:02:30.742Z,10.41
2022-12-06T08:07:35.989Z,10.43
2022-12-06T08:12:39.587Z,10.45
2022-12-06T08:17:43.542Z,10.43
2022-12-06T08:22:48.755Z,10.43
2022-12-06T08:27:52.335Z,10.43
2022-12-06T08:32:55.876Z,10.35
2022-12-06T08:38:01.099Z,10.28
2022-12-06T08:43:04.712Z,10.40
2022-12-06T08:48:08.332Z,10.48
2022-12-06T08:53:13.624Z,10.49
2022-12-06T08:58:17.138Z,10.48
2022-12-06T09:03:20.713Z,10.47
2022-12-06T09:08:26.006Z,10.51
2022-12-06T09:13:29.816Z,10.41
2022-12-06T09:18:33.352Z,10.45
2022-12-06T09:23:39.418Z,10.48
2022-12-06T09:28:44.161Z,10.50
2022-12-06T09:33:49.311Z,10.49
2022-12-06T09:38:58.757Z,10.42
2022-12-06T09:44:15.787Z,10.52
2022-12-06T09:49:31.676Z,10.39
2022-12-06T09:54:52.631Z,10.43
2022-12-06T10:00:09.854Z,10.49
2022-12-06T10:05:42.146Z,10.46
2022-12-06T10:10:57.626Z,10.49
2022-12-06T10:16:13.082Z,10.48
2022-12-06T10:21:23.844Z,10.48
2022-12-06T10:26:39.949Z,10.48
2022-12-06T10:31:55.893Z,10.61
2022-12-06T10:37:06.221Z,10.59
2022-12-06T10:42:19.223Z,10.60
2022-12-06T10:47:28.176Z,10.61
2022-12-06T10:52:39.481Z,10.63
2022-12-06T10:57:49.472Z,10.66
2022-12-06T11:03:02.003Z,10.65
2022-12-06T11:08:12.210Z,10.67
2022-12-06T11:13:22.163Z,10.65
2022-12-06T11:18:29.429Z,10.56
2022-12-06T11:23:41.068Z,10.59
2022-12-06T11:28:53.610Z,10.48
2022-12-06T11:33:58.911Z,10.46
2022-12-06T11:39:03.064Z,10.50
2022-12-06T11:44:14.272Z,10.54
2022-12-06T11:49:28.265Z,10.43
2022-12-06T11:54:39.107Z,10.52
2022-12-06T12:00:10.814Z,10.59
2022-12-06T12:05:21.518Z,10.60
2022-12-06T12:10:32.893Z,10.54
2022-12-06T12:15:38.796Z,10.55
2022-12-06T12:20:47.195Z,10.54
2022-12-06T12:26:01.195Z,10.55
2022-12-06T12:31:17.580Z,10.45
2022-12-06T12:36:26.478Z,10.40
2022-12-06T12:41:34.735Z,10.41
2022-12-06T12:46:44.404Z,10.41
2022-12-06T12:51:48.169Z,10.32
2022-12-06T12:56:52.649Z,10.29
2022-12-06T13:02:03.211Z,10.25
2022-12-06T13:07:13.131Z,10.15
2022-12-06T13:12:24.095Z,10.13
2022-12-06T13:17:32.735Z,10.16
2022-12-06T13:22:38.335Z,10.18
2022-12-06T13:27:46.288Z,10.03
2022-12-06T13:32:56.075Z,9.86
2022-12-06T13:38:01.560Z,9.89
2022-12-06T13:43:07.332Z,9.90
2022-12-06T13:48:48.430Z,9.78
2022-12-06T13:54:36.136Z,9.73
2022-12-06T13:59:42.566Z,9.69
2022-12-06T14:04:47.855Z,9.80
2022-12-06T14:09:51.576Z,10.00
2022-12-06T14:15:00.095Z,9.97
2022-12-06T14:20:20.171Z,9.99
2022-12-06T14:25:26.005Z,9.92
2022-12-06T14:30:29.752Z,9.85
2022-12-06T14:35:36.430Z,9.67
2022-12-06T14:40:47.175Z,9.80
2022-12-06T14:45:53.126Z,10.04
2022-12-06T14:51:03.633Z,10.21
2022-12-06T14:56:20.559Z,10.19
2022-12-06T15:01:26.432Z,10.17
2022-12-06T15:06:32.671Z,10.17
2022-12-06T15:11:36.194Z,10.21
2022-12-06T15:16:40.312Z,10.17
2022-12-06T15:21:45.616Z,10.07
2022-12-06T15:26:49.257Z,10.12
2022-12-06T15:31:54.365Z,10.14
2022-12-06T15:37:38.040Z,10.13
2022-12-06T15:42:25.215Z,10.13
2022-12-06T15:47:28.880Z,10.17
2022-12-06T15:52:34.198Z,10.19
2022-12-06T15:57:37.824Z,10.20
2022-12-06T16:02:41.465Z,10.35
2022-12-06T16:07:46.830Z,10.49
2022-12-06T16:12:50.489Z,10.61
2022-12-06T16:17:54.333Z,10.71
2022-12-06T16:23:02.689Z,10.80
2022-12-06T16:28:06.444Z,10.83
2022-12-06T16:33:15.823Z,10.76
2022-12-06T16:38:21.546Z,10.66
2022-12-06T16:43:25.192Z,10.80
2022-12-06T16:48:28.871Z,10.86
2022-12-06T16:53:34.148Z,10.90
2022-12-06T16:58:37.828Z,11.16
2022-12-06T17:03:41.423Z,11.03
2022-12-06T17:08:46.859Z,10.77
2022-12-06T17:13:50.459Z,10.80
2022-12-06T17:18:54.072Z,10.73
2022-12-06T17:24:00.974Z,10.82
2022-12-06T17:29:04.917Z,10.94
2022-12-06T17:34:08.835Z,11.05
2022-12-06T17:39:16.722Z,11.13
2022-12-06T17:44:20.702Z,11.13
2022-12-06T17:49:26.244Z,11.22
2022-12-06T17:54:31.587Z,11.46
2022-12-06T17:59:35.272Z,11.45
2022-12-06T18:04:39.133Z,11.55
2022-12-06T18:09:44.748Z,11.65
2022-12-06T18:14:48.353Z,11.70
2022-12-06T18:19:51.982Z,11.69
2022-12-06T18:24:57.251Z,11.68
2022-12-06T18:30:01.102Z,11.77
2022-12-06T18:35:05.653Z,12.09
2022-12-06T18:40:11.515Z,12.10
2022-12-06T18:45:15.216Z,12.08
2022-12-06T18:50:19.079Z,12.20
2022-12-06T18:55:24.442Z,12.44
2022-12-06T19:00:28.314Z,13.05
2022-12-06T19:06:00.933Z,13.52
2022-12-06T19:11:02.003Z,12.98
2022-12-06T19:16:06.127Z,12.73
2022-12-06T19:21:09.734Z,12.60
2022-12-06T19:26:15.126Z,12.74
2022-12-06T19:31:19.649Z,12.74
2022-12-06T19:36:25.263Z,12.71
2022-12-06T19:41:31.176Z,12.49
2022-12-06T19:46:34.869Z,12.56
2022-12-06T19:51:39.655Z,12.56
2022-12-06T19:56:45.020Z,12.51
2022-12-06T20:01:49.475Z,12.48
2022-12-06T20:06:54.325Z,12.54
2022-12-06T20:12:01.389Z,12.62
2022-12-06T20:17:06.263Z,12.75
2022-12-06T20:22:09.946Z,12.61
2022-12-06T20:27:15.229Z,12.61
2022-12-06T20:32:18.846Z,12.60
2022-12-06T20:37:22.496Z,12.68
2022-12-06T20:42:27.894Z,12.62
2022-12-06T20:47:31.497Z,12.60
2022-12-06T20:52:35.116Z,12.51
2022-12-06T20:57:40.683Z,12.40
2022-12-06T21:02:44.358Z,12.48
2022-12-06T21:07:48.068Z,12.50
2022-12-06T21:12:53.356Z,12.74
2022-12-06T21:17:56.997Z,12.84
2022-12-06T21:23:00.633Z,13.21
2022-12-06T21:28:06.952Z,13.55
2022-12-06T21:33:10.530Z,13.98
2022-12-06T21:38:14.956Z,14.09
2022-12-06T21:43:21.155Z,14.24
2022-12-06T21:48:24.754Z,13.88
2022-12-06T21:53:28.393Z,13.51
2022-12-06T21:58:33.635Z,13.32
2022-12-06T22:03:37.365Z,13.24
2022-12-06T22:08:42.022Z,13.24
2022-12-06T22:13:47.706Z,13.11
2022-12-06T22:18:51.281Z,13.13
2022-12-06T22:23:55.863Z,13.09
2022-12-06T22:29:01.583Z,12.97
2022-12-06T22:34:05.406Z,12.82
2022-12-06T22:39:09.061Z,12.83
2022-12-06T22:44:14.327Z,12.83
2022-12-06T22:49:18.663Z,12.87
2022-12-06T22:54:22.330Z,12.89
2022-12-06T22:59:27.618Z,12.97
2022-12-06T23:04:31.268Z,12.99
2022-12-06T23:09:34.871Z,12.94
2022-12-06T23:14:40.186Z,12.93
2022-12-06T23:19:43.810Z,12.87
2022-12-06T23:24:49.560Z,12.86
2022-12-06T23:29:54.855Z,12.73
2022-12-06T23:34:58.491Z,12.66
2022-12-06T23:40:02.269Z,12.52
2022-12-06T23:45:08.854Z,12.32
2022-12-06T23:50:12.888Z,12.24
2022-12-06T23:55:16.624Z,12.23
